| time (UTC) | temp F | wind direction | speed knots | gust knots | rain 1hr in | rain 24hr in | rain mn in | humidity % | barometer mb |
| 20260505194531 | 75 | 346 | 0.0 | 3.5 | 0.00 | 0.00 | 0.00 | 49 | 1014.2 |
| 20260505191531 | 74 | 325 | 0.0 | 3.5 | 0.00 | 0.00 | 0.00 | 51 | 1014.2 |
| 20260505190033 | 73 | 304 | 0.9 | 4.3 | 0.00 | 0.00 | 0.00 | 52 | 1014.3 |
| 20260505183036 | 70 | 282 | 0.9 | 5.2 | 0.00 | 0.00 | 0.00 | 56 | 1014.4 |
| 20260505180142 | 70 | 278 | 0.9 | 5.2 | 0.00 | 0.00 | 0.00 | 56 | 1014.4 |
| 20260505174530 | 69 | 273 | 0.9 | 5.2 | 0.00 | 0.00 | 0.00 | 57 | 1014.4 |
| 20260505173030 | 68 | 269 | 0.9 | 4.3 | 0.00 | 0.00 | 0.00 | 58 | 1014.4 |
| 20260505171528 | 68 | 285 | 0.9 | 4.3 | 0.00 | 0.00 | 0.00 | 57 | 1014.4 |
| 20260505170044 | 68 | 273 | 0.9 | 6.1 | 0.00 | 0.00 | 0.00 | 57 | 1014.3 |
| 20260505170037 | 68 | 276 | 0.9 | 5.2 | 0.00 | 0.00 | 0.00 | 57 | 1014.3 |
| 20260505163031 | 67 | 255 | 0.0 | 2.6 | 0.00 | 0.00 | 0.00 | 59 | 1014.3 |
| 20260505161535 | 67 | 258 | 0.0 | 6.1 | 0.00 | 0.00 | 0.00 | 59 | 1014.4 |
| 20260505153035 | 65 | 247 | 0.0 | 3.5 | 0.00 | 0.00 | 0.00 | 62 | 1014.2 |
| 20260505124535 | 60 | 276 | 0.0 | 6.1 | 0.00 | 0.00 | 0.00 | 68 | 1012.7 |
| 20260505123141 | 61 | 281 | 0.0 | 4.3 | 0.00 | 0.00 | 0.00 | 68 | 1012.5 |
| 20260505120035 | 61 | 278 | 0.9 | 4.3 | 0.00 | 0.00 | 0.00 | 68 | 1012.3 |
| 20260505114535 | 61 | 269 | 0.0 | 5.2 | 0.00 | 0.00 | 0.00 | 67 | 1012.3 |
| 20260505111538 | 62 | 260 | 0.0 | 4.3 | 0.00 | 0.00 | 0.00 | 67 | 1012.0 |
| 20260505101531 | 63 | 266 | 0.9 | 4.3 | 0.00 | 0.00 | 0.00 | 66 | 1011.5 |
| 20260505094535 | 63 | 278 | 0.0 | 6.1 | 0.00 | 0.00 | 0.00 | 65 | 1011.4 |
| 20260505093031 | 64 | 272 | 0.0 | 4.3 | 0.00 | 0.00 | 0.00 | 64 | 1011.4 |
| 20260505091530 | 64 | 269 | 0.0 | 7.0 | 0.00 | 0.00 | 0.00 | 64 | 1011.4 |
| 20260505090035 | 65 | 270 | 0.0 | 6.1 | 0.00 | 0.00 | 0.00 | 63 | 1011.3 |
| 20260505084533 | 66 | 265 | 0.0 | 5.2 | 0.00 | 0.00 | 0.00 | 62 | 1011.1 |
| 20260505080033 | 66 | 275 | 0.0 | 4.3 | 0.00 | 0.00 | 0.00 | 62 | 1011.0 |
| 20260505073037 | 66 | 267 | 0.0 | 5.2 | 0.00 | 0.00 | 0.00 | 62 | 1010.9 |
| 20260505071537 | 66 | 216 | 0.0 | 3.5 | 0.00 | 0.00 | 0.00 | 62 | 1010.8 |
| 20260505070036 | 65 | 257 | 0.0 | 4.3 | 0.00 | 0.00 | 0.00 | 61 | 1010.7 |
| 20260505064534 | 67 | 245 | 0.0 | 2.6 | 0.00 | 0.00 | 0.00 | 58 | 1010.6 |
| 20260505063028 | 67 | 258 | 0.9 | 5.2 | 0.00 | 0.00 | 0.00 | 58 | 1010.4 |
| 20260505061536 | 68 | 263 | 0.0 | 4.3 | 0.00 | 0.00 | 0.00 | 57 | 1010.4 |
| 20260505060111 | 68 | 275 | 0.9 | 5.2 | 0.00 | 0.00 | 0.00 | 55 | 1010.2 |
| 20260505053037 | 68 | 282 | 0.0 | 4.3 | 0.00 | 0.00 | 0.00 | 54 | 1010.2 |
| 20260505051533 | 68 | 285 | 0.0 | 7.8 | 0.00 | 0.00 | 0.00 | 53 | 1010.2 |
| 20260505040110 | 71 | 225 | 0.0 | 8.7 | 0.00 | 0.00 | 0.00 | 47 | 1009.4 |
| 20260505034611 | 70 | 259 | 0.0 | 3.5 | 0.00 | 0.00 | 0.00 | 49 | 1009.2 |
| 20260505033032 | 71 | 259 | 0.0 | 5.2 | 0.00 | 0.00 | 0.00 | 48 | 1009.0 |
| 20260505031620 | 72 | 239 | 0.0 | 4.3 | 0.00 | 0.00 | 0.00 | 47 | 1008.8 |
| 20260505030034 | 73 | 262 | 0.0 | 4.3 | 0.00 | 0.00 | 0.00 | 47 | 1008.6 |
| 20260505024531 | 73 | 259 | 0.9 | 6.1 | 0.00 | 0.00 | 0.00 | 46 | 1008.5 |
| 20260505023107 | 74 | 258 | 0.0 | 3.5 | 0.00 | 0.00 | 0.00 | 46 | 1008.4 |
| 20260505021531 | 75 | 274 | 0.0 | 5.2 | 0.00 | 0.00 | 0.00 | 45 | 1008.4 |
| 20260505020029 | 76 | 271 | 0.0 | 5.2 | 0.00 | 0.00 | 0.00 | 44 | 1008.4 |
| 20260505014607 | 76 | 261 | 0.0 | 3.5 | 0.00 | 0.00 | 0.00 | 43 | 1008.3 |
| 20260505013036 | 78 | 257 | 0.0 | 7.0 | 0.00 | 0.00 | 0.00 | 41 | 1008.2 |
| 20260505011532 | 79 | 246 | 0.9 | 7.0 | 0.00 | 0.00 | 0.00 | 40 | 1008.2 |
| 20260505010040 | 79 | 268 | 0.0 | 7.8 | 0.00 | 0.00 | 0.00 | 40 | 1008.2 |
| 20260505004531 | 79 | 285 | 0.9 | 6.1 | 0.00 | 0.00 | 0.00 | 40 | 1008.2 |
| 20260505000043 | 80 | 275 | 0.9 | 6.1 | 0.00 | 0.00 | 0.00 | 40 | 1008.4 |
| 20260504233037 | 81 | 275 | 0.0 | 4.3 | 0.00 | 0.00 | 0.00 | 39 | 1008.4 |
| 20260504230035 | 84 | 295 | 0.9 | 5.2 | 0.00 | 0.00 | 0.00 | 37 | 1008.8 |
| 20260504224644 | 85 | 286 | 0.0 | 4.3 | 0.00 | 0.00 | 0.00 | 37 | 1009.0 |
| 20260504220032 | 86 | 302 | 0.9 | 5.2 | 0.00 | 0.00 | 0.00 | 37 | 1009.2 |
| 20260504214643 | 86 | 302 | 0.0 | 5.2 | 0.00 | 0.00 | 0.00 | 37 | 1009.5 |
| 20260504213136 | 86 | 311 | 0.0 | 4.3 | 0.00 | 0.00 | 0.00 | 37 | 1009.6 |
| 20260504211537 | 86 | 288 | 0.9 | 5.2 | 0.00 | 0.00 | 0.00 | 36 | 1009.7 |
| 20260504210032 | 86 | 293 | 0.0 | 4.3 | 0.00 | 0.00 | 0.00 | 38 | 1009.8 |
| 20260504203036 | 83 | 302 | 0.0 | 3.5 | 0.00 | 0.00 | 0.00 | 42 | 1010.2 |
| 20260504200037 | 81 | 284 | 0.0 | 3.5 | 0.00 | 0.00 | 0.00 | 44 | 1010.4 |